AirNav   Pilot Hours Calculator
 
 354 users online  

MO27 CCC Airport
Cameron, Missouri, USA

GOING TO CAMERON?


FAA INFORMATION EFFECTIVE 26 MARCH 2020

Location

FAA Identifier: MO27
Lat/Long: 39-44-07.0100N 094-11-33.8000W
39-44.116833N 094-11.563333W
39.7352806,-94.1927222
(estimated)
Elevation: 984 ft. / 300 m (estimated)
Variation: 03E (2000)
From city: 2 miles E of CAMERON, MO
Time zone: UTC -5 (UTC -6 during Standard Time)
Zip code: 64429

Airport Operations

Airport use: Private use. Permission required prior to landing
Activation date: 12/2000
Control tower: no
ARTCC: KANSAS CITY CENTER
FSS: COLUMBIA FLIGHT SERVICE STATION
Attendance: UNATNDD
Segmented circle: no

Airport Communications

WX AWOS-3PT at EZZ (4 nm W): 121.05 (816-933-2124)

Nearby radio navigation aids

VOR radial/distance  VOR name  Freq  Var
BQSr290/15.9BRAYMER VOR/DME111.2003E
STJr104/36.3ST JOSEPH VORTAC115.5008E
MCIr038/36.9KANSAS CITY VORTAC113.2505E
ANXr349/38.5NAPOLEON VORTAC114.0007E

 
NDB name  Hdg/Dist  Freq  Var  ID
AMAZON101/34.223304EAZN .- --.. -.
TRENTON230/34.540003ETRX - .-. -..-

Airport Services

Runway Information

Runway 11/29

Dimensions: 1500 x 60 ft. / 457 x 18 m
Surface: turf
RUNWAY 11  RUNWAY 29
Traffic pattern: leftright

Airport Ownership and Management from official FAA records

Ownership: Privately-owned
Owner: MARVIN CARPENTER
6135 NW SALE BARN RD.
CAMERON, MO 64429
Phone 816-632-2877
Manager: MARVIN CARPENTER
6135 NW SALE BARN RD
CAMERON, MO 64429
Phone 816-632-2877

Airport Operational Statistics

Aircraft based on the field: 1
Single engine airplanes: 1
    

Additional Remarks

OWNER DESIRES ARPT NOT BE CHARTED.
FOR CD CTC KANSAS CITY APCH AT 816-329-2710.

Instrument Procedures

There are no published instrument procedures at MO27.

Some nearby airports with instrument procedures:

KEZZ - Cameron Memorial Airport (4 nm W)
3EX - Excelsior Springs Memorial Airport (24 nm S)
KGPH - Midwest National Air Center Airport (25 nm S)
KCHT - Chillicothe Municipal Airport (32 nm E)
KSTJ - Rosecrans Memorial Airport (33 nm W)
 
Loc | Ops | Rwys | IFR | FBO | Links
Com | Nav | Svcs | Stats | Notes

Kansas City Aviation Department
 
Area around MO27 (CCC Airport)
 
Road maps at: MapQuest Bing Google
 
Aerial photo
No photo
 
Sectional chart

 
Airport distance calculator
Flying to CCC Airport? Find the distance to fly.

From to MO27

Sunrise and sunset
Times for 30-Mar-2020
 Local
(UTC-5)
 Zulu
(UTC)
Morning civil twilight06:3611:36
Sunrise07:0412:04
Sunset19:3900:39
Evening civil twilight20:0601:06

Current date and time
Zulu (UTC)  30-Mar-2020 07:54:02
Local (UTC-5)  30-Mar-2020 02:54:02
 
METAR
KEZZ 
4nm W 
300735Z AUTO 15003KT 10SM CLR 07/00 A3019 RMK AO2 T00701000
TAF
KSTJ 
33nm W 
300520Z 3006/3106 00000KT P6SM SKC FM301200 07002KT P6SM SCT250 FM301600 10008KT P6SM BKN200 FM310200 06006KT P6SM OVC100
KMCI 
36nm SW 
300520Z 3006/3106 VRB04KT P6SM SKC FM301200 10006KT P6SM SCT250 FM301600 10008KT P6SM BKN200 FM310200 08009KT P6SM OVC100
KMKC 
42nm SW 
300520Z 3006/3106 00000KT P6SM SKC FM301200 08003KT P6SM SCT250 FM301600 09007KT P6SM BKN200 FM310200 07007KT P6SM OVC100
NOTAMs
Click for the latest NOTAMs
NOTAMs are issued by the DoD/FAA and will open in a separate window not controlled by AirNav.

 

 
 

Would you like to see your business listed on this page?

 If your business provides an interesting product or service to pilots, flight crews, aircraft, or users of the CCC Airport, you should consider listing it here.  To start the listing process, click on the button below
 
Add a business
 

Other Pages about CCC Airport

Update a link
 
Copyright © AirNav, LLC. All rights reserved. Privacy Policy  Contact